sensor_id;sensor_type;location;lat;lon;timestamp;P1;durP1;ratioP1;P2;durP2;ratioP2
7759;SDS011;3924;48.830;9.262;2023-12-28T00:01:31;2.47;;;1.33;;
7759;SDS011;3924;48.830;9.262;2023-12-28T00:03:58;1.27;;;1.27;;
7759;SDS011;3924;48.830;9.262;2023-12-28T00:06:42;2.37;;;1.03;;
7759;SDS011;3924;48.830;9.262;2023-12-28T00:09:09;1.73;;;0.90;;
7759;SDS011;3924;48.830;9.262;2023-12-28T00:11:37;1.50;;;0.93;;
7759;SDS011;3924;48.830;9.262;2023-12-28T00:14:04;1.30;;;1.20;;
7759;SDS011;3924;48.830;9.262;2023-12-28T00:16:31;0.87;;;0.87;;
7759;SDS011;3924;48.830;9.262;2023-12-28T00:18:59;0.93;;;0.93;;
7759;SDS011;3924;48.830;9.262;2023-12-28T00:21:28;1.57;;;1.40;;
7759;SDS011;3924;48.830;9.262;2023-12-28T00:23:55;0.70;;;0.70;;
7759;SDS011;3924;48.830;9.262;2023-12-28T00:26:21;1.17;;;1.13;;
7759;SDS011;3924;48.830;9.262;2023-12-28T00:28:48;1.57;;;1.47;;
7759;SDS011;3924;48.830;9.262;2023-12-28T00:31:14;1.40;;;1.30;;
7759;SDS011;3924;48.830;9.262;2023-12-28T00:33:41;2.23;;;1.03;;
7759;SDS011;3924;48.830;9.262;2023-12-28T00:36:08;0.73;;;0.73;;
7759;SDS011;3924;48.830;9.262;2023-12-28T00:38:35;1.43;;;0.90;;
7759;SDS011;3924;48.830;9.262;2023-12-28T00:41:01;0.70;;;0.70;;
7759;SDS011;3924;48.830;9.262;2023-12-28T00:43:28;0.73;;;0.73;;
7759;SDS011;3924;48.830;9.262;2023-12-28T00:45:54;1.37;;;1.27;;
7759;SDS011;3924;48.830;9.262;2023-12-28T00:48:21;0.97;;;0.97;;
7759;SDS011;3924;48.830;9.262;2023-12-28T00:50:48;1.00;;;0.90;;
7759;SDS011;3924;48.830;9.262;2023-12-28T00:53:14;0.83;;;0.83;;
7759;SDS011;3924;48.830;9.262;2023-12-28T00:55:41;1.17;;;1.13;;
7759;SDS011;3924;48.830;9.262;2023-12-28T00:58:07;1.37;;;1.10;;
7759;SDS011;3924;48.830;9.262;2023-12-28T01:00:34;1.77;;;1.67;;
7759;SDS011;3924;48.830;9.262;2023-12-28T01:03:01;1.13;;;1.13;;
7759;SDS011;3924;48.830;9.262;2023-12-28T01:05:27;2.10;;;1.23;;
7759;SDS011;3924;48.830;9.262;2023-12-28T01:07:55;1.10;;;1.00;;
7759;SDS011;3924;48.830;9.262;2023-12-28T01:10:22;3.27;;;1.47;;
7759;SDS011;3924;48.830;9.262;2023-12-28T01:12:48;1.10;;;1.10;;
7759;SDS011;3924;48.830;9.262;2023-12-28T01:15:15;1.40;;;1.37;;
7759;SDS011;3924;48.830;9.262;2023-12-28T01:17:44;0.90;;;0.90;;
7759;SDS011;3924;48.830;9.262;2023-12-28T01:20:11;1.37;;;1.27;;
7759;SDS011;3924;48.830;9.262;2023-12-28T01:22:37;1.27;;;1.17;;
7759;SDS011;3924;48.830;9.262;2023-12-28T01:25:04;1.53;;;1.17;;
7759;SDS011;3924;48.830;9.262;2023-12-28T01:27:31;1.07;;;1.07;;
7759;SDS011;3924;48.830;9.262;2023-12-28T01:29:57;1.57;;;1.30;;
7759;SDS011;3924;48.830;9.262;2023-12-28T01:32:24;1.40;;;1.30;;
7759;SDS011;3924;48.830;9.262;2023-12-28T01:34:51;2.13;;;1.90;;
7759;SDS011;3924;48.830;9.262;2023-12-28T01:37:17;3.57;;;1.23;;
7759;SDS011;3924;48.830;9.262;2023-12-28T01:39:44;1.77;;;1.67;;
7759;SDS011;3924;48.830;9.262;2023-12-28T01:42:10;1.27;;;1.17;;
7759;SDS011;3924;48.830;9.262;2023-12-28T01:44:37;1.63;;;1.53;;
7759;SDS011;3924;48.830;9.262;2023-12-28T01:47:04;2.30;;;1.43;;
7759;SDS011;3924;48.830;9.262;2023-12-28T01:49:32;6.23;;;1.63;;
7759;SDS011;3924;48.830;9.262;2023-12-28T01:52:00;1.33;;;1.10;;
7759;SDS011;3924;48.830;9.262;2023-12-28T01:54:28;1.30;;;1.20;;
7759;SDS011;3924;48.830;9.262;2023-12-28T01:56:55;3.57;;;1.97;;
7759;SDS011;3924;48.830;9.262;2023-12-28T01:59:22;1.20;;;1.10;;
7759;SDS011;3924;48.830;9.262;2023-12-28T02:01:49;2.17;;;1.97;;
7759;SDS011;3924;48.830;9.262;2023-12-28T02:04:16;1.33;;;1.20;;
7759;SDS011;3924;48.830;9.262;2023-12-28T02:06:43;1.30;;;1.20;;
7759;SDS011;3924;48.830;9.262;2023-12-28T02:09:09;1.40;;;1.30;;
7759;SDS011;3924;48.830;9.262;2023-12-28T02:11:36;1.40;;;1.30;;
7759;SDS011;3924;48.830;9.262;2023-12-28T02:14:02;0.90;;;0.90;;
7759;SDS011;3924;48.830;9.262;2023-12-28T02:16:31;1.33;;;1.27;;
7759;SDS011;3924;48.830;9.262;2023-12-28T02:19:00;2.03;;;1.07;;
7759;SDS011;3924;48.830;9.262;2023-12-28T02:21:36;0.90;;;0.90;;
7759;SDS011;3924;48.830;9.262;2023-12-28T02:24:03;0.80;;;0.80;;
7759;SDS011;3924;48.830;9.262;2023-12-28T02:26:29;1.03;;;1.03;;
7759;SDS011;3924;48.830;9.262;2023-12-28T02:28:56;1.20;;;1.13;;
7759;SDS011;3924;48.830;9.262;2023-12-28T02:31:26;1.00;;;1.00;;
7759;SDS011;3924;48.830;9.262;2023-12-28T02:33:59;1.17;;;1.13;;
7759;SDS011;3924;48.830;9.262;2023-12-28T02:36:39;3.23;;;1.30;;
7759;SDS011;3924;48.830;9.262;2023-12-28T02:39:08;2.87;;;1.73;;
7759;SDS011;3924;48.830;9.262;2023-12-28T02:41:37;2.73;;;1.63;;
7759;SDS011;3924;48.830;9.262;2023-12-28T02:44:04;3.57;;;1.10;;
7759;SDS011;3924;48.830;9.262;2023-12-28T02:46:31;1.53;;;1.37;;
7759;SDS011;3924;48.830;9.262;2023-12-28T02:48:58;0.97;;;0.93;;
7759;SDS011;3924;48.830;9.262;2023-12-28T02:51:25;1.40;;;1.30;;
7759;SDS011;3924;48.830;9.262;2023-12-28T02:53:52;2.60;;;1.40;;
7759;SDS011;3924;48.830;9.262;2023-12-28T02:56:19;2.97;;;1.43;;
7759;SDS011;3924;48.830;9.262;2023-12-28T02:58:45;5.80;;;1.77;;
7759;SDS011;3924;48.830;9.262;2023-12-28T03:01:12;3.40;;;1.57;;
7759;SDS011;3924;48.830;9.262;2023-12-28T03:03:39;1.93;;;1.20;;
7759;SDS011;3924;48.830;9.262;2023-12-28T03:06:06;1.80;;;1.13;;
7759;SDS011;3924;48.830;9.262;2023-12-28T03:08:32;0.90;;;0.90;;
7759;SDS011;3924;48.830;9.262;2023-12-28T03:10:59;2.17;;;1.73;;
7759;SDS011;3924;48.830;9.262;2023-12-28T03:13:26;0.90;;;0.90;;
7759;SDS011;3924;48.830;9.262;2023-12-28T03:15:52;1.33;;;1.23;;
7759;SDS011;3924;48.830;9.262;2023-12-28T03:18:19;1.03;;;1.00;;
7759;SDS011;3924;48.830;9.262;2023-12-28T03:20:45;1.20;;;0.90;;
7759;SDS011;3924;48.830;9.262;2023-12-28T03:23:12;1.10;;;1.10;;
7759;SDS011;3924;48.830;9.262;2023-12-28T03:25:39;1.20;;;1.10;;
7759;SDS011;3924;48.830;9.262;2023-12-28T03:28:06;1.63;;;1.53;;
7759;SDS011;3924;48.830;9.262;2023-12-28T03:30:32;1.40;;;1.30;;
7759;SDS011;3924;48.830;9.262;2023-12-28T03:32:59;1.27;;;1.17;;
7759;SDS011;3924;48.830;9.262;2023-12-28T03:35:25;2.90;;;1.40;;
7759;SDS011;3924;48.830;9.262;2023-12-28T03:37:52;1.63;;;1.03;;
7759;SDS011;3924;48.830;9.262;2023-12-28T03:40:19;1.17;;;1.13;;
7759;SDS011;3924;48.830;9.262;2023-12-28T03:42:46;1.37;;;1.27;;
7759;SDS011;3924;48.830;9.262;2023-12-28T03:45:13;1.07;;;1.00;;
7759;SDS011;3924;48.830;9.262;2023-12-28T03:47:40;1.50;;;1.10;;
7759;SDS011;3924;48.830;9.262;2023-12-28T03:50:07;1.00;;;0.90;;
7759;SDS011;3924;48.830;9.262;2023-12-28T03:52:34;0.80;;;0.80;;
7759;SDS011;3924;48.830;9.262;2023-12-28T03:55:01;1.77;;;1.17;;
7759;SDS011;3924;48.830;9.262;2023-12-28T03:57:27;1.00;;;0.90;;
7759;SDS011;3924;48.830;9.262;2023-12-28T03:59:54;2.43;;;1.17;;
7759;SDS011;3924;48.830;9.262;2023-12-28T04:02:21;1.00;;;1.00;;
7759;SDS011;3924;48.830;9.262;2023-12-28T04:04:48;0.60;;;0.60;;
7759;SDS011;3924;48.830;9.262;2023-12-28T04:07:14;0.90;;;0.90;;
7759;SDS011;3924;48.830;9.262;2023-12-28T04:09:42;0.80;;;0.80;;
7759;SDS011;3924;48.830;9.262;2023-12-28T04:12:09;0.87;;;0.87;;
7759;SDS011;3924;48.830;9.262;2023-12-28T04:14:35;2.13;;;1.50;;
7759;SDS011;3924;48.830;9.262;2023-12-28T04:17:02;0.60;;;0.60;;
7759;SDS011;3924;48.830;9.262;2023-12-28T04:19:28;1.17;;;1.17;;
7759;SDS011;3924;48.830;9.262;2023-12-28T04:21:55;2.00;;;1.80;;
7759;SDS011;3924;48.830;9.262;2023-12-28T04:24:22;1.80;;;1.47;;
7759;SDS011;3924;48.830;9.262;2023-12-28T04:26:49;1.37;;;1.33;;
7759;SDS011;3924;48.830;9.262;2023-12-28T04:29:15;2.10;;;1.40;;
7759;SDS011;3924;48.830;9.262;2023-12-28T04:31:42;0.87;;;0.87;;
7759;SDS011;3924;48.830;9.262;2023-12-28T04:34:09;0.90;;;0.90;;
7759;SDS011;3924;48.830;9.262;2023-12-28T04:36:39;1.30;;;1.20;;
7759;SDS011;3924;48.830;9.262;2023-12-28T04:39:08;1.97;;;1.50;;
7759;SDS011;3924;48.830;9.262;2023-12-28T04:41:34;1.40;;;1.30;;
7759;SDS011;3924;48.830;9.262;2023-12-28T04:44:01;3.60;;;1.00;;
7759;SDS011;3924;48.830;9.262;2023-12-28T04:46:28;1.83;;;1.00;;
7759;SDS011;3924;48.830;9.262;2023-12-28T04:48:54;1.50;;;1.40;;
7759;SDS011;3924;48.830;9.262;2023-12-28T04:51:21;1.03;;;0.97;;
7759;SDS011;3924;48.830;9.262;2023-12-28T04:53:48;1.00;;;0.90;;
7759;SDS011;3924;48.830;9.262;2023-12-28T04:56:17;0.97;;;0.97;;
7759;SDS011;3924;48.830;9.262;2023-12-28T04:58:45;1.03;;;1.00;;
7759;SDS011;3924;48.830;9.262;2023-12-28T05:01:12;1.03;;;1.03;;
7759;SDS011;3924;48.830;9.262;2023-12-28T05:03:39;1.83;;;1.23;;
7759;SDS011;3924;48.830;9.262;2023-12-28T05:06:05;0.90;;;0.90;;
7759;SDS011;3924;48.830;9.262;2023-12-28T05:08:32;0.73;;;0.73;;
7759;SDS011;3924;48.830;9.262;2023-12-28T05:10:59;1.10;;;1.10;;
7759;SDS011;3924;48.830;9.262;2023-12-28T05:13:25;1.30;;;0.97;;
7759;SDS011;3924;48.830;9.262;2023-12-28T05:15:52;1.40;;;1.30;;
7759;SDS011;3924;48.830;9.262;2023-12-28T05:18:18;0.87;;;0.87;;
7759;SDS011;3924;48.830;9.262;2023-12-28T05:20:45;1.37;;;1.27;;
7759;SDS011;3924;48.830;9.262;2023-12-28T05:23:12;0.97;;;0.90;;
7759;SDS011;3924;48.830;9.262;2023-12-28T05:25:38;1.23;;;1.20;;
7759;SDS011;3924;48.830;9.262;2023-12-28T05:28:04;0.90;;;0.90;;
7759;SDS011;3924;48.830;9.262;2023-12-28T05:30:31;1.33;;;1.23;;
7759;SDS011;3924;48.830;9.262;2023-12-28T05:32:58;1.27;;;1.03;;
7759;SDS011;3924;48.830;9.262;2023-12-28T05:35:25;3.80;;;1.30;;
7759;SDS011;3924;48.830;9.262;2023-12-28T05:37:51;0.90;;;0.90;;
7759;SDS011;3924;48.830;9.262;2023-12-28T05:40:18;0.97;;;0.90;;
7759;SDS011;3924;48.830;9.262;2023-12-28T05:42:45;2.97;;;1.33;;
7759;SDS011;3924;48.830;9.262;2023-12-28T05:45:11;1.13;;;1.03;;
7759;SDS011;3924;48.830;9.262;2023-12-28T05:47:38;1.30;;;1.27;;
7759;SDS011;3924;48.830;9.262;2023-12-28T05:50:05;1.90;;;1.20;;
7759;SDS011;3924;48.830;9.262;2023-12-28T05:52:32;1.53;;;1.43;;
7759;SDS011;3924;48.830;9.262;2023-12-28T05:54:59;0.90;;;0.90;;
7759;SDS011;3924;48.830;9.262;2023-12-28T05:57:26;4.83;;;1.83;;
7759;SDS011;3924;48.830;9.262;2023-12-28T05:59:59;0.87;;;0.87;;
7759;SDS011;3924;48.830;9.262;2023-12-28T06:02:26;2.90;;;1.17;;
7759;SDS011;3924;48.830;9.262;2023-12-28T06:04:53;1.30;;;1.07;;
7759;SDS011;3924;48.830;9.262;2023-12-28T06:07:20;0.87;;;0.87;;
7759;SDS011;3924;48.830;9.262;2023-12-28T06:09:46;0.80;;;0.80;;
7759;SDS011;3924;48.830;9.262;2023-12-28T06:12:13;0.77;;;0.77;;
7759;SDS011;3924;48.830;9.262;2023-12-28T06:14:40;2.10;;;1.20;;
7759;SDS011;3924;48.830;9.262;2023-12-28T06:17:06;0.83;;;0.83;;
7759;SDS011;3924;48.830;9.262;2023-12-28T06:19:33;1.20;;;1.20;;
7759;SDS011;3924;48.830;9.262;2023-12-28T06:22:00;3.10;;;1.57;;
7759;SDS011;3924;48.830;9.262;2023-12-28T06:24:27;1.03;;;0.97;;
7759;SDS011;3924;48.830;9.262;2023-12-28T06:26:53;0.67;;;0.67;;
7759;SDS011;3924;48.830;9.262;2023-12-28T06:29:20;1.73;;;1.03;;
7759;SDS011;3924;48.830;9.262;2023-12-28T06:31:46;1.53;;;1.37;;
7759;SDS011;3924;48.830;9.262;2023-12-28T06:34:13;0.90;;;0.90;;
7759;SDS011;3924;48.830;9.262;2023-12-28T06:36:40;5.33;;;1.30;;
7759;SDS011;3924;48.830;9.262;2023-12-28T06:39:07;1.10;;;1.10;;
7759;SDS011;3924;48.830;9.262;2023-12-28T06:41:33;0.87;;;0.87;;
7759;SDS011;3924;48.830;9.262;2023-12-28T06:44:00;1.40;;;1.30;;
7759;SDS011;3924;48.830;9.262;2023-12-28T06:46:26;0.77;;;0.77;;
7759;SDS011;3924;48.830;9.262;2023-12-28T06:48:53;1.53;;;0.93;;
7759;SDS011;3924;48.830;9.262;2023-12-28T06:51:20;2.37;;;1.03;;
7759;SDS011;3924;48.830;9.262;2023-12-28T06:53:48;1.07;;;1.07;;
7759;SDS011;3924;48.830;9.262;2023-12-28T06:56:16;1.27;;;1.17;;
7759;SDS011;3924;48.830;9.262;2023-12-28T06:58:43;3.50;;;0.97;;
7759;SDS011;3924;48.830;9.262;2023-12-28T07:01:10;1.37;;;1.27;;
7759;SDS011;3924;48.830;9.262;2023-12-28T07:03:38;2.10;;;1.60;;
7759;SDS011;3924;48.830;9.262;2023-12-28T07:06:05;2.57;;;1.03;;
7759;SDS011;3924;48.830;9.262;2023-12-28T07:08:32;0.93;;;0.93;;
7759;SDS011;3924;48.830;9.262;2023-12-28T07:11:02;1.50;;;1.27;;
7759;SDS011;3924;48.830;9.262;2023-12-28T07:13:30;1.60;;;1.50;;
7759;SDS011;3924;48.830;9.262;2023-12-28T07:15:57;1.27;;;1.20;;
7759;SDS011;3924;48.830;9.262;2023-12-28T07:18:26;1.03;;;1.03;;
7759;SDS011;3924;48.830;9.262;2023-12-28T07:20:54;1.23;;;0.77;;
7759;SDS011;3924;48.830;9.262;2023-12-28T07:23:20;1.57;;;0.93;;
7759;SDS011;3924;48.830;9.262;2023-12-28T07:25:47;1.70;;;1.60;;
7759;SDS011;3924;48.830;9.262;2023-12-28T07:28:14;1.33;;;1.27;;
7759;SDS011;3924;48.830;9.262;2023-12-28T07:30:40;2.83;;;1.37;;
7759;SDS011;3924;48.830;9.262;2023-12-28T07:33:07;2.73;;;1.57;;
7759;SDS011;3924;48.830;9.262;2023-12-28T07:35:34;2.00;;;1.23;;
7759;SDS011;3924;48.830;9.262;2023-12-28T07:38:01;3.03;;;1.10;;
7759;SDS011;3924;48.830;9.262;2023-12-28T07:40:28;1.53;;;1.43;;
7759;SDS011;3924;48.830;9.262;2023-12-28T07:42:54;1.67;;;1.20;;
7759;SDS011;3924;48.830;9.262;2023-12-28T07:45:21;1.53;;;1.43;;
7759;SDS011;3924;48.830;9.262;2023-12-28T07:47:50;2.80;;;2.30;;
7759;SDS011;3924;48.830;9.262;2023-12-28T07:50:17;1.43;;;1.23;;
7759;SDS011;3924;48.830;9.262;2023-12-28T07:52:45;2.10;;;1.20;;
7759;SDS011;3924;48.830;9.262;2023-12-28T07:55:13;1.77;;;1.50;;
7759;SDS011;3924;48.830;9.262;2023-12-28T07:57:41;2.70;;;1.77;;
7759;SDS011;3924;48.830;9.262;2023-12-28T08:00:08;1.93;;;1.77;;
7759;SDS011;3924;48.830;9.262;2023-12-28T08:02:35;2.80;;;2.37;;
7759;SDS011;3924;48.830;9.262;2023-12-28T08:05:02;2.83;;;2.60;;
7759;SDS011;3924;48.830;9.262;2023-12-28T08:07:30;3.13;;;2.30;;
7759;SDS011;3924;48.830;9.262;2023-12-28T08:09:56;3.60;;;2.50;;
7759;SDS011;3924;48.830;9.262;2023-12-28T08:12:23;3.27;;;2.20;;
7759;SDS011;3924;48.830;9.262;2023-12-28T08:14:50;1.97;;;1.83;;
7759;SDS011;3924;48.830;9.262;2023-12-28T08:17:17;2.57;;;1.73;;
7759;SDS011;3924;48.830;9.262;2023-12-28T08:19:43;3.13;;;2.33;;
7759;SDS011;3924;48.830;9.262;2023-12-28T08:22:10;1.77;;;1.40;;
7759;SDS011;3924;48.830;9.262;2023-12-28T08:24:37;1.77;;;1.67;;
7759;SDS011;3924;48.830;9.262;2023-12-28T08:27:03;1.93;;;1.83;;
7759;SDS011;3924;48.830;9.262;2023-12-28T08:29:30;2.47;;;1.30;;
7759;SDS011;3924;48.830;9.262;2023-12-28T08:31:56;3.17;;;2.10;;
7759;SDS011;3924;48.830;9.262;2023-12-28T08:34:23;1.67;;;1.57;;
7759;SDS011;3924;48.830;9.262;2023-12-28T08:36:50;2.60;;;1.73;;
7759;SDS011;3924;48.830;9.262;2023-12-28T08:39:16;1.30;;;1.23;;
7759;SDS011;3924;48.830;9.262;2023-12-28T08:41:43;1.90;;;1.33;;
7759;SDS011;3924;48.830;9.262;2023-12-28T08:44:09;1.50;;;1.40;;
7759;SDS011;3924;48.830;9.262;2023-12-28T08:46:36;5.10;;;2.37;;
7759;SDS011;3924;48.830;9.262;2023-12-28T08:49:02;3.20;;;2.23;;
7759;SDS011;3924;48.830;9.262;2023-12-28T08:51:29;4.10;;;2.33;;
7759;SDS011;3924;48.830;9.262;2023-12-28T08:53:56;1.77;;;1.57;;
7759;SDS011;3924;48.830;9.262;2023-12-28T08:56:22;1.93;;;1.70;;
7759;SDS011;3924;48.830;9.262;2023-12-28T08:58:49;1.87;;;1.40;;
7759;SDS011;3924;48.830;9.262;2023-12-28T09:01:21;1.20;;;1.07;;
7759;SDS011;3924;48.830;9.262;2023-12-28T09:03:49;1.83;;;1.40;;
7759;SDS011;3924;48.830;9.262;2023-12-28T09:06:19;4.93;;;2.23;;
7759;SDS011;3924;48.830;9.262;2023-12-28T09:08:49;2.83;;;2.20;;
7759;SDS011;3924;48.830;9.262;2023-12-28T09:11:18;2.27;;;1.77;;
7759;SDS011;3924;48.830;9.262;2023-12-28T09:13:45;1.97;;;1.87;;
7759;SDS011;3924;48.830;9.262;2023-12-28T09:16:12;3.40;;;2.00;;
7759;SDS011;3924;48.830;9.262;2023-12-28T09:18:40;1.90;;;1.73;;
7759;SDS011;3924;48.830;9.262;2023-12-28T09:21:08;1.43;;;1.33;;
7759;SDS011;3924;48.830;9.262;2023-12-28T09:23:35;1.60;;;1.50;;
7759;SDS011;3924;48.830;9.262;2023-12-28T09:26:03;4.33;;;1.00;;
7759;SDS011;3924;48.830;9.262;2023-12-28T09:28:31;14.30;;;2.50;;
7759;SDS011;3924;48.830;9.262;2023-12-28T09:30:58;1.80;;;1.67;;
7759;SDS011;3924;48.830;9.262;2023-12-28T09:33:24;2.27;;;1.80;;
7759;SDS011;3924;48.830;9.262;2023-12-28T09:35:51;2.50;;;1.30;;
7759;SDS011;3924;48.830;9.262;2023-12-28T09:38:19;1.53;;;1.53;;
7759;SDS011;3924;48.830;9.262;2023-12-28T09:40:46;1.10;;;1.00;;
7759;SDS011;3924;48.830;9.262;2023-12-28T09:43:28;1.67;;;1.57;;
7759;SDS011;3924;48.830;9.262;2023-12-28T09:46:06;2.43;;;1.30;;
7759;SDS011;3924;48.830;9.262;2023-12-28T09:48:34;7.90;;;1.33;;
7759;SDS011;3924;48.830;9.262;2023-12-28T09:51:02;1.40;;;1.37;;
7759;SDS011;3924;48.830;9.262;2023-12-28T09:53:29;5.33;;;2.03;;
7759;SDS011;3924;48.830;9.262;2023-12-28T09:55:56;2.07;;;1.97;;
7759;SDS011;3924;48.830;9.262;2023-12-28T09:58:22;8.20;;;1.80;;
7759;SDS011;3924;48.830;9.262;2023-12-28T10:00:49;1.27;;;1.17;;
7759;SDS011;3924;48.830;9.262;2023-12-28T10:03:17;3.00;;;1.00;;
7759;SDS011;3924;48.830;9.262;2023-12-28T10:05:45;1.23;;;1.20;;
7759;SDS011;3924;48.830;9.262;2023-12-28T10:08:12;1.00;;;1.00;;
7759;SDS011;3924;48.830;9.262;2023-12-28T10:10:41;2.93;;;1.70;;
7759;SDS011;3924;48.830;9.262;2023-12-28T10:13:08;1.67;;;1.17;;
7759;SDS011;3924;48.830;9.262;2023-12-28T10:15:35;2.40;;;1.67;;
7759;SDS011;3924;48.830;9.262;2023-12-28T10:18:04;2.93;;;2.30;;
7759;SDS011;3924;48.830;9.262;2023-12-28T10:20:31;4.13;;;3.03;;
7759;SDS011;3924;48.830;9.262;2023-12-28T10:22:58;3.57;;;3.10;;
7759;SDS011;3924;48.830;9.262;2023-12-28T10:25:28;2.87;;;1.60;;
7759;SDS011;3924;48.830;9.262;2023-12-28T10:27:56;1.40;;;1.30;;
7759;SDS011;3924;48.830;9.262;2023-12-28T10:30:23;2.73;;;2.03;;
7759;SDS011;3924;48.830;9.262;2023-12-28T10:32:50;3.70;;;1.57;;
7759;SDS011;3924;48.830;9.262;2023-12-28T10:35:17;1.80;;;1.70;;
7759;SDS011;3924;48.830;9.262;2023-12-28T10:37:44;2.47;;;2.00;;
7759;SDS011;3924;48.830;9.262;2023-12-28T10:40:14;1.97;;;1.60;;
7759;SDS011;3924;48.830;9.262;2023-12-28T10:42:51;1.70;;;1.60;;
7759;SDS011;3924;48.830;9.262;2023-12-28T10:45:21;2.87;;;2.63;;
7759;SDS011;3924;48.830;9.262;2023-12-28T10:48:13;7.03;;;4.03;;
7759;SDS011;3924;48.830;9.262;2023-12-28T10:50:50;7.33;;;4.40;;
7759;SDS011;3924;48.830;9.262;2023-12-28T10:56:10;3.33;;;2.53;;
7759;SDS011;3924;48.830;9.262;2023-12-28T10:59:05;6.03;;;2.73;;
7759;SDS011;3924;48.830;9.262;2023-12-28T11:01:55;3.50;;;2.10;;
7759;SDS011;3924;48.830;9.262;2023-12-28T11:06:56;5.67;;;2.17;;
7759;SDS011;3924;48.830;9.262;2023-12-28T11:09:26;2.40;;;2.20;;
7759;SDS011;3924;48.830;9.262;2023-12-28T11:11:52;4.77;;;1.90;;
7759;SDS011;3924;48.830;9.262;2023-12-28T11:14:21;2.73;;;1.87;;
7759;SDS011;3924;48.830;9.262;2023-12-28T11:16:48;2.40;;;1.77;;
7759;SDS011;3924;48.830;9.262;2023-12-28T11:19:15;2.23;;;2.03;;
7759;SDS011;3924;48.830;9.262;2023-12-28T11:21:43;1.87;;;1.73;;
7759;SDS011;3924;48.830;9.262;2023-12-28T11:24:10;2.27;;;2.07;;
7759;SDS011;3924;48.830;9.262;2023-12-28T11:26:37;1.53;;;1.43;;
7759;SDS011;3924;48.830;9.262;2023-12-28T11:29:04;6.30;;;2.43;;
7759;SDS011;3924;48.830;9.262;2023-12-28T11:31:34;3.87;;;1.87;;
7759;SDS011;3924;48.830;9.262;2023-12-28T11:34:01;1.80;;;1.70;;
7759;SDS011;3924;48.830;9.262;2023-12-28T11:36:35;4.23;;;1.83;;
7759;SDS011;3924;48.830;9.262;2023-12-28T11:39:06;2.53;;;1.53;;
7759;SDS011;3924;48.830;9.262;2023-12-28T11:41:33;2.63;;;2.17;;
7759;SDS011;3924;48.830;9.262;2023-12-28T11:44:03;1.90;;;1.37;;
7759;SDS011;3924;48.830;9.262;2023-12-28T11:46:31;2.83;;;1.70;;
7759;SDS011;3924;48.830;9.262;2023-12-28T11:49:05;2.10;;;1.90;;
7759;SDS011;3924;48.830;9.262;2023-12-28T11:51:35;3.03;;;1.90;;
7759;SDS011;3924;48.830;9.262;2023-12-28T11:54:04;2.93;;;1.97;;
7759;SDS011;3924;48.830;9.262;2023-12-28T11:56:31;2.53;;;2.33;;
7759;SDS011;3924;48.830;9.262;2023-12-28T11:58:59;3.47;;;2.67;;
7759;SDS011;3924;48.830;9.262;2023-12-28T12:01:26;2.57;;;2.10;;
7759;SDS011;3924;48.830;9.262;2023-12-28T12:03:53;5.30;;;2.57;;
7759;SDS011;3924;48.830;9.262;2023-12-28T12:06:20;2.77;;;2.40;;
7759;SDS011;3924;48.830;9.262;2023-12-28T12:08:47;3.17;;;2.03;;
7759;SDS011;3924;48.830;9.262;2023-12-28T12:11:14;2.90;;;2.10;;
7759;SDS011;3924;48.830;9.262;2023-12-28T12:13:40;1.93;;;1.83;;
7759;SDS011;3924;48.830;9.262;2023-12-28T12:16:07;9.43;;;2.30;;
7759;SDS011;3924;48.830;9.262;2023-12-28T12:18:34;5.90;;;4.20;;
7759;SDS011;3924;48.830;9.262;2023-12-28T12:21:02;7.83;;;2.33;;
7759;SDS011;3924;48.830;9.262;2023-12-28T12:23:29;4.50;;;2.73;;
7759;SDS011;3924;48.830;9.262;2023-12-28T12:25:56;5.00;;;2.87;;
7759;SDS011;3924;48.830;9.262;2023-12-28T12:28:23;4.27;;;3.23;;
7759;SDS011;3924;48.830;9.262;2023-12-28T12:30:51;4.20;;;3.63;;
7759;SDS011;3924;48.830;9.262;2023-12-28T12:33:20;6.70;;;4.70;;
7759;SDS011;3924;48.830;9.262;2023-12-28T12:35:47;7.23;;;4.23;;
7759;SDS011;3924;48.830;9.262;2023-12-28T12:38:14;4.53;;;3.50;;
7759;SDS011;3924;48.830;9.262;2023-12-28T12:40:41;3.97;;;3.67;;
7759;SDS011;3924;48.830;9.262;2023-12-28T12:43:08;4.47;;;3.10;;
7759;SDS011;3924;48.830;9.262;2023-12-28T12:45:36;8.87;;;3.70;;
7759;SDS011;3924;48.830;9.262;2023-12-28T12:48:03;2.87;;;2.57;;
7759;SDS011;3924;48.830;9.262;2023-12-28T12:50:33;4.43;;;3.03;;
7759;SDS011;3924;48.830;9.262;2023-12-28T12:53:00;2.90;;;2.70;;
7759;SDS011;3924;48.830;9.262;2023-12-28T12:55:27;5.27;;;2.87;;
7759;SDS011;3924;48.830;9.262;2023-12-28T12:57:54;3.70;;;2.63;;
7759;SDS011;3924;48.830;9.262;2023-12-28T13:00:24;4.60;;;2.03;;
7759;SDS011;3924;48.830;9.262;2023-12-28T13:02:51;3.27;;;2.60;;
7759;SDS011;3924;48.830;9.262;2023-12-28T13:05:19;3.80;;;2.53;;
7759;SDS011;3924;48.830;9.262;2023-12-28T13:07:46;1.40;;;1.30;;
7759;SDS011;3924;48.830;9.262;2023-12-28T13:10:13;1.47;;;1.37;;
7759;SDS011;3924;48.830;9.262;2023-12-28T13:12:40;2.20;;;1.80;;
7759;SDS011;3924;48.830;9.262;2023-12-28T13:15:06;1.13;;;1.10;;
7759;SDS011;3924;48.830;9.262;2023-12-28T13:17:36;0.93;;;0.93;;
7759;SDS011;3924;48.830;9.262;2023-12-28T13:20:06;1.43;;;1.37;;
7759;SDS011;3924;48.830;9.262;2023-12-28T13:22:33;1.27;;;1.17;;
7759;SDS011;3924;48.830;9.262;2023-12-28T13:25:00;1.20;;;1.10;;
7759;SDS011;3924;48.830;9.262;2023-12-28T13:27:30;1.53;;;1.30;;
7759;SDS011;3924;48.830;9.262;2023-12-28T13:29:58;1.60;;;1.50;;
7759;SDS011;3924;48.830;9.262;2023-12-28T13:32:24;0.70;;;0.70;;
7759;SDS011;3924;48.830;9.262;2023-12-28T13:34:51;0.87;;;0.87;;
7759;SDS011;3924;48.830;9.262;2023-12-28T13:37:18;2.13;;;1.00;;
7759;SDS011;3924;48.830;9.262;2023-12-28T13:39:45;2.27;;;1.43;;
7759;SDS011;3924;48.830;9.262;2023-12-28T13:42:13;0.70;;;0.70;;
7759;SDS011;3924;48.830;9.262;2023-12-28T13:44:40;2.17;;;0.97;;
7759;SDS011;3924;48.830;9.262;2023-12-28T13:47:07;1.20;;;1.10;;
7759;SDS011;3924;48.830;9.262;2023-12-28T13:49:34;11.20;;;1.30;;
7759;SDS011;3924;48.830;9.262;2023-12-28T13:52:01;1.30;;;1.20;;
7759;SDS011;3924;48.830;9.262;2023-12-28T13:54:28;0.80;;;0.80;;
7759;SDS011;3924;48.830;9.262;2023-12-28T13:56:54;1.93;;;1.50;;
7759;SDS011;3924;48.830;9.262;2023-12-28T13:59:23;1.60;;;1.50;;
7759;SDS011;3924;48.830;9.262;2023-12-28T14:01:50;1.60;;;0.90;;
7759;SDS011;3924;48.830;9.262;2023-12-28T14:04:17;1.20;;;1.20;;
7759;SDS011;3924;48.830;9.262;2023-12-28T14:06:44;6.30;;;1.80;;
7759;SDS011;3924;48.830;9.262;2023-12-28T14:09:10;0.80;;;0.80;;
7759;SDS011;3924;48.830;9.262;2023-12-28T14:11:38;2.50;;;1.37;;
7759;SDS011;3924;48.830;9.262;2023-12-28T14:14:05;2.73;;;1.87;;
7759;SDS011;3924;48.830;9.262;2023-12-28T14:16:31;0.87;;;0.87;;
7759;SDS011;3924;48.830;9.262;2023-12-28T14:18:57;3.17;;;2.13;;
7759;SDS011;3924;48.830;9.262;2023-12-28T14:21:24;0.90;;;0.90;;
7759;SDS011;3924;48.830;9.262;2023-12-28T14:23:51;1.40;;;1.33;;
7759;SDS011;3924;48.830;9.262;2023-12-28T14:26:18;1.23;;;1.23;;
7759;SDS011;3924;48.830;9.262;2023-12-28T14:28:47;2.33;;;1.47;;
7759;SDS011;3924;48.830;9.262;2023-12-28T14:31:17;2.20;;;1.77;;
7759;SDS011;3924;48.830;9.262;2023-12-28T14:33:44;1.00;;;0.97;;
7759;SDS011;3924;48.830;9.262;2023-12-28T14:38:49;0.87;;;0.87;;
7759;SDS011;3924;48.830;9.262;2023-12-28T14:41:15;0.90;;;0.90;;
7759;SDS011;3924;48.830;9.262;2023-12-28T14:43:42;1.60;;;1.20;;
7759;SDS011;3924;48.830;9.262;2023-12-28T14:46:08;0.90;;;0.90;;
7759;SDS011;3924;48.830;9.262;2023-12-28T14:48:35;1.70;;;1.00;;
7759;SDS011;3924;48.830;9.262;2023-12-28T14:51:02;1.13;;;1.13;;
7759;SDS011;3924;48.830;9.262;2023-12-28T14:53:29;1.10;;;1.03;;
7759;SDS011;3924;48.830;9.262;2023-12-28T14:55:55;0.83;;;0.83;;
7759;SDS011;3924;48.830;9.262;2023-12-28T14:58:22;0.60;;;0.60;;
7759;SDS011;3924;48.830;9.262;2023-12-28T15:00:48;0.70;;;0.70;;
7759;SDS011;3924;48.830;9.262;2023-12-28T15:03:15;1.30;;;1.07;;
7759;SDS011;3924;48.830;9.262;2023-12-28T15:05:42;0.80;;;0.80;;
7759;SDS011;3924;48.830;9.262;2023-12-28T15:08:09;8.13;;;0.93;;
7759;SDS011;3924;48.830;9.262;2023-12-28T15:10:35;1.50;;;1.40;;
7759;SDS011;3924;48.830;9.262;2023-12-28T15:13:02;3.60;;;0.80;;
7759;SDS011;3924;48.830;9.262;2023-12-28T15:15:29;1.50;;;1.40;;
7759;SDS011;3924;48.830;9.262;2023-12-28T15:17:56;0.90;;;0.60;;
7759;SDS011;3924;48.830;9.262;2023-12-28T15:20:23;0.70;;;0.67;;
7759;SDS011;3924;48.830;9.262;2023-12-28T15:22:50;0.60;;;0.60;;
7759;SDS011;3924;48.830;9.262;2023-12-28T15:25:18;3.33;;;1.20;;